createdAt,value
2023-05-23T00:00:53.292Z,46.42
2023-05-23T00:03:25.363Z,51.80
2023-05-23T00:05:55.162Z,54.60
2023-05-23T00:08:24.673Z,51.72
2023-05-23T00:10:54.620Z,52.08
2023-05-23T00:13:24.564Z,48.70
2023-05-23T00:15:53.725Z,45.25
2023-05-23T00:18:25.996Z,57.00
2023-05-23T00:20:55.415Z,51.90
2023-05-23T00:23:26.543Z,45.95
2023-05-23T00:25:56.413Z,46.90
2023-05-23T00:28:27.081Z,54.15
2023-05-23T00:30:56.509Z,54.88
2023-05-23T00:33:26.388Z,45.35
2023-05-23T00:35:55.659Z,49.63
2023-05-23T00:38:24.923Z,47.13
2023-05-23T00:40:54.386Z,56.17
2023-05-23T00:43:24.021Z,50.08
2023-05-23T00:45:54.069Z,50.67
2023-05-23T00:48:23.732Z,58.78
2023-05-23T00:50:53.414Z,46.50
2023-05-23T00:53:23.375Z,48.83
2023-05-23T00:55:53.219Z,60.85
2023-05-23T00:58:22.887Z,55.58
2023-05-23T01:00:55.663Z,60.60
2023-05-23T01:03:29.781Z,61.35
2023-05-23T01:05:59.329Z,73.07
2023-05-23T01:08:30.924Z,64.85
2023-05-23T01:11:06.382Z,62.03
2023-05-23T01:13:44.399Z,52.75
2023-05-23T01:16:14.069Z,55.20
2023-05-23T01:18:55.497Z,61.85
2023-05-23T01:21:26.948Z,57.72
2023-05-23T01:24:05.042Z,61.72
2023-05-23T01:26:46.982Z,62.08
2023-05-23T01:29:24.150Z,61.85
2023-05-23T01:31:57.339Z,61.47
2023-05-23T01:36:58.945Z,51.22
2023-05-23T01:39:28.290Z,53.40
2023-05-23T01:41:57.838Z,53.72
2023-05-23T01:44:28.189Z,67.93
2023-05-23T01:46:58.072Z,59.45
2023-05-23T01:49:29.226Z,58.33
2023-05-23T01:52:03.259Z,58.65
2023-05-23T01:54:33.896Z,59.15
2023-05-23T01:57:04.554Z,52.42
2023-05-23T01:59:34.785Z,63.88
2023-05-23T02:02:04.461Z,61.95
2023-05-23T02:04:34.106Z,53.08
2023-05-23T02:07:03.449Z,53.20
2023-05-23T02:09:33.453Z,51.20
2023-05-23T02:12:02.553Z,59.95
2023-05-23T02:14:31.934Z,48.90
2023-05-23T02:17:01.762Z,60.25
2023-05-23T02:19:31.635Z,51.00
2023-05-23T02:22:01.418Z,50.75
2023-05-23T02:24:30.496Z,69.10
2023-05-23T02:26:59.730Z,53.33
2023-05-23T02:29:28.924Z,51.63
2023-05-23T02:31:58.457Z,49.97
2023-05-23T02:34:27.843Z,52.45
2023-05-23T02:36:57.145Z,51.33
2023-05-23T02:39:26.399Z,57.03
2023-05-23T02:41:56.624Z,38.47
2023-05-23T02:44:27.908Z,50.83
2023-05-23T02:46:57.262Z,47.97
2023-05-23T02:49:26.731Z,52.45
2023-05-23T02:51:56.279Z,47.20
2023-05-23T02:54:25.511Z,44.67
2023-05-23T02:56:55.893Z,53.15
2023-05-23T02:59:25.390Z,49.20
2023-05-23T03:01:54.718Z,56.63
2023-05-23T03:04:25.024Z,51.88
2023-05-23T03:06:55.620Z,59.10
2023-05-23T03:09:24.949Z,55.53
2023-05-23T03:11:54.805Z,56.80
2023-05-23T03:14:24.921Z,62.72
2023-05-23T03:16:54.032Z,56.60
2023-05-23T03:19:23.659Z,65.13
2023-05-23T03:21:53.700Z,74.80
2023-05-23T03:24:23.046Z,79.57
2023-05-23T03:26:52.632Z,64.10
2023-05-23T03:29:22.249Z,61.13
2023-05-23T03:31:51.690Z,61.42
2023-05-23T03:34:21.634Z,70.90
2023-05-23T03:36:51.040Z,75.47
2023-05-23T03:39:20.433Z,64.07
2023-05-23T03:41:50.088Z,56.20
2023-05-23T03:44:19.816Z,58.47
2023-05-23T03:46:49.022Z,57.53
2023-05-23T03:49:19.814Z,56.30
2023-05-23T03:51:49.740Z,55.58
2023-05-23T03:54:20.333Z,57.15
2023-05-23T03:56:49.719Z,70.68
2023-05-23T03:59:19.697Z,59.50
2023-05-23T04:01:49.338Z,67.72
2023-05-23T04:04:19.297Z,65.55
2023-05-23T04:06:49.174Z,65.28
2023-05-23T04:09:19.009Z,56.28
2023-05-23T04:11:50.255Z,63.20
2023-05-23T04:14:23.505Z,58.55
2023-05-23T04:16:53.804Z,70.60
2023-05-23T04:19:23.511Z,59.53
2023-05-23T04:21:54.580Z,68.60
2023-05-23T04:24:24.900Z,58.90
2023-05-23T04:26:57.479Z,51.30
2023-05-23T04:29:27.612Z,58.22
2023-05-23T04:31:57.496Z,40.70
2023-05-23T04:34:27.172Z,52.33
2023-05-23T04:36:56.606Z,56.95
2023-05-23T04:39:26.800Z,63.22
2023-05-23T04:42:15.168Z,47.55
2023-05-23T04:45:17.111Z,46.80
2023-05-23T04:48:10.111Z,38.67
2023-05-23T04:50:49.139Z,30.70
2023-05-23T04:53:20.390Z,41.65
2023-05-23T04:55:50.196Z,40.83
2023-05-23T04:58:22.481Z,45.45
2023-05-23T05:00:52.166Z,42.60
2023-05-23T05:03:21.553Z,44.10
2023-05-23T05:05:51.017Z,37.60
2023-05-23T05:08:23.282Z,36.92
2023-05-23T05:10:53.259Z,41.05
2023-05-23T05:13:23.220Z,39.38
2023-05-23T05:15:55.534Z,31.80
2023-05-23T05:18:30.137Z,29.70
2023-05-23T05:21:00.829Z,38.90
2023-05-23T05:23:30.053Z,37.15
2023-05-23T05:26:02.072Z,36.63
2023-05-23T05:28:31.343Z,32.00
2023-05-23T05:31:01.498Z,34.90
2023-05-23T05:33:36.951Z,34.67
2023-05-23T05:36:11.371Z,31.35
2023-05-23T05:38:40.902Z,30.63
2023-05-23T05:41:10.329Z,36.20
2023-05-23T05:43:44.335Z,34.47
2023-05-23T05:46:14.004Z,37.08
2023-05-23T05:48:43.903Z,35.47
2023-05-23T05:51:15.059Z,27.60
2023-05-23T05:53:45.202Z,35.70
2023-05-23T05:56:15.069Z,28.30
2023-05-23T05:58:44.692Z,31.73
2023-05-23T06:01:16.297Z,41.72
2023-05-23T06:03:46.041Z,38.35
2023-05-23T06:06:15.462Z,31.45
2023-05-23T06:08:46.204Z,31.75
2023-05-23T06:11:19.220Z,31.77
2023-05-23T06:13:48.833Z,33.60
2023-05-23T06:16:18.303Z,40.17
2023-05-23T06:18:47.967Z,37.72
2023-05-23T06:21:17.801Z,35.78
2023-05-23T06:23:51.393Z,33.25
2023-05-23T06:26:21.051Z,31.35
2023-05-23T06:28:50.742Z,41.97
2023-05-23T06:31:20.098Z,38.72
2023-05-23T06:33:49.401Z,31.90
2023-05-23T06:36:19.648Z,24.73
2023-05-23T06:38:50.511Z,33.58
2023-05-23T06:41:20.648Z,33.60
2023-05-23T06:43:49.889Z,32.45
2023-05-23T06:46:26.319Z,30.98
2023-05-23T06:49:06.578Z,29.63
2023-05-23T06:51:45.218Z,29.17
2023-05-23T06:54:14.631Z,35.50
2023-05-23T06:56:44.287Z,28.08
2023-05-23T06:59:13.609Z,32.10
2023-05-23T07:01:42.787Z,33.80
2023-05-23T07:04:13.615Z,23.65
2023-05-23T07:06:43.395Z,28.70
2023-05-23T07:09:14.307Z,30.45
2023-05-23T07:11:43.612Z,28.50
2023-05-23T07:14:13.462Z,34.22
2023-05-23T07:16:44.594Z,23.27
2023-05-23T07:19:14.664Z,28.33
2023-05-23T07:21:47.938Z,29.48
2023-05-23T07:24:19.894Z,39.42
2023-05-23T07:26:49.795Z,33.28
2023-05-23T07:29:20.032Z,28.50
2023-05-23T07:31:51.523Z,28.20
2023-05-23T07:34:22.520Z,23.92
2023-05-23T07:36:56.584Z,25.23
2023-05-23T07:39:29.521Z,33.03
2023-05-23T07:42:01.990Z,22.35
2023-05-23T07:44:31.750Z,41.78
2023-05-23T07:47:01.125Z,26.85
2023-05-23T07:49:31.472Z,32.88
2023-05-23T07:52:00.822Z,24.02
2023-05-23T07:54:30.740Z,20.95
2023-05-23T07:57:01.723Z,24.75
2023-05-23T07:59:31.591Z,22.35
2023-05-23T08:02:01.223Z,23.67
2023-05-23T08:04:31.617Z,25.67
2023-05-23T08:07:05.662Z,38.28
2023-05-23T08:09:58.586Z,21.98
2023-05-23T08:12:28.553Z,25.95
2023-05-23T08:15:09.613Z,25.95
2023-05-23T08:17:44.850Z,28.25
2023-05-23T08:20:18.095Z,29.73
2023-05-23T08:22:48.286Z,37.00
2023-05-23T08:25:17.851Z,35.28
2023-05-23T08:27:47.140Z,28.73
2023-05-23T08:30:39.321Z,26.50
2023-05-23T08:33:09.334Z,38.30
2023-05-23T08:35:43.073Z,34.17
2023-05-23T08:41:02.821Z,31.08
2023-05-23T08:43:33.551Z,30.65
2023-05-23T08:46:05.963Z,43.45
2023-05-23T08:48:42.486Z,42.97
2023-05-23T08:51:14.767Z,29.02
2023-05-23T08:58:50.978Z,37.15
2023-05-23T09:01:23.864Z,57.08
2023-05-23T09:04:01.470Z,33.05
2023-05-23T09:06:38.710Z,34.53
2023-05-23T09:09:08.585Z,27.05
2023-05-23T09:11:38.733Z,39.42
2023-05-23T09:14:11.623Z,34.97
2023-05-23T09:16:41.976Z,29.50
2023-05-23T09:19:16.292Z,31.25
2023-05-23T09:21:55.200Z,23.08
2023-05-23T09:24:39.754Z,27.55
2023-05-23T09:27:11.097Z,25.80
2023-05-23T09:29:44.671Z,29.80
2023-05-23T09:32:18.259Z,28.13
2023-05-23T09:35:03.466Z,25.88
2023-05-23T09:37:34.141Z,33.75
2023-05-23T09:40:12.762Z,28.02
2023-05-23T09:42:48.896Z,21.08
2023-05-23T09:45:20.244Z,29.38
2023-05-23T09:47:55.853Z,21.10
2023-05-23T09:50:37.058Z,33.92
2023-05-23T09:53:07.085Z,25.48
2023-05-23T09:55:38.121Z,24.30
2023-05-23T09:58:09.703Z,25.98
2023-05-23T10:00:40.096Z,26.33
2023-05-23T10:03:18.519Z,22.10
2023-05-23T10:06:02.789Z,25.23
2023-05-23T10:08:37.492Z,19.27
2023-05-23T10:11:15.935Z,25.10
2023-05-23T10:13:47.283Z,28.77
2023-05-23T10:16:42.048Z,41.53
2023-05-23T10:19:22.097Z,27.90
2023-05-23T10:21:56.845Z,30.48
2023-05-23T10:24:27.676Z,24.63
2023-05-23T10:26:57.861Z,39.22
2023-05-23T10:29:28.083Z,23.73
2023-05-23T10:31:59.413Z,42.28
2023-05-23T10:34:32.623Z,33.22
2023-05-23T10:37:09.598Z,40.63
2023-05-23T10:40:00.806Z,34.90
2023-05-23T10:42:47.312Z,44.40
2023-05-23T10:45:18.879Z,39.33
2023-05-23T10:47:54.301Z,24.90
2023-05-23T10:50:35.064Z,42.15
2023-05-23T10:53:07.486Z,41.00
2023-05-23T10:55:38.627Z,26.23
2023-05-23T10:58:13.436Z,32.35
2023-05-23T11:01:02.558Z,33.13
2023-05-23T11:03:39.627Z,30.00
2023-05-23T11:06:29.277Z,35.72
2023-05-23T11:09:10.939Z,38.28
2023-05-23T11:12:04.583Z,39.13
2023-05-23T11:14:56.015Z,30.35
2023-05-23T11:17:55.267Z,30.25
2023-05-23T11:20:29.815Z,18.98
2023-05-23T11:23:03.947Z,27.42
2023-05-23T11:25:46.241Z,19.02
2023-05-23T11:28:16.463Z,28.70
2023-05-23T11:30:50.894Z,25.50
2023-05-23T11:33:21.234Z,17.42
2023-05-23T11:35:52.996Z,33.17
2023-05-23T11:38:22.837Z,28.88
2023-05-23T11:40:51.981Z,32.22
2023-05-23T11:43:21.775Z,15.98
2023-05-23T11:45:51.169Z,34.70
2023-05-23T11:48:20.610Z,23.15
2023-05-23T11:50:53.757Z,16.30
2023-05-23T11:53:26.410Z,39.58
2023-05-23T11:55:59.443Z,27.77
2023-05-23T12:01:06.566Z,25.10
2023-05-23T12:03:46.261Z,31.75
2023-05-23T12:06:20.886Z,23.38
2023-05-23T12:08:50.838Z,25.27
2023-05-23T12:11:20.041Z,33.55
2023-05-23T12:13:49.613Z,26.55
2023-05-23T12:16:18.692Z,30.25
2023-05-23T12:18:49.105Z,27.30
2023-05-23T12:21:18.545Z,25.38
2023-05-23T12:23:48.665Z,28.17
2023-05-23T12:26:18.590Z,22.15
2023-05-23T12:28:48.112Z,30.30
2023-05-23T12:31:23.837Z,27.83
2023-05-23T12:33:55.195Z,22.73
2023-05-23T12:36:29.861Z,25.85
2023-05-23T12:39:05.615Z,26.90
2023-05-23T12:41:35.587Z,36.08
2023-05-23T12:44:06.025Z,37.65
2023-05-23T12:46:35.732Z,19.50
2023-05-23T12:49:05.276Z,23.25
2023-05-23T12:51:34.827Z,29.40
2023-05-23T12:54:04.480Z,30.67
2023-05-23T12:56:34.134Z,29.83
2023-05-23T12:59:05.290Z,27.88
2023-05-23T13:01:36.361Z,22.95
2023-05-23T13:04:06.062Z,31.05
2023-05-23T13:06:35.541Z,28.85
2023-05-23T13:09:05.307Z,29.05
2023-05-23T13:11:34.641Z,23.15
2023-05-23T13:14:13.833Z,27.05
2023-05-23T13:16:46.756Z,30.98
2023-05-23T13:19:16.467Z,20.33
2023-05-23T13:21:47.932Z,32.00
2023-05-23T13:24:19.732Z,23.75
2023-05-23T13:26:50.142Z,26.17
2023-05-23T13:29:19.389Z,21.83
2023-05-23T13:31:48.903Z,16.55
2023-05-23T13:34:18.125Z,27.17
2023-05-23T13:36:47.471Z,27.58
2023-05-23T13:39:18.200Z,33.38
2023-05-23T13:41:49.774Z,19.77
2023-05-23T13:44:19.285Z,27.55
2023-05-23T13:46:48.716Z,24.58
2023-05-23T13:49:18.138Z,31.33
2023-05-23T13:51:48.081Z,26.95
2023-05-23T13:54:17.987Z,31.23
2023-05-23T13:56:47.590Z,23.95
2023-05-23T13:59:22.138Z,44.13
2023-05-23T14:01:51.869Z,30.50
2023-05-23T14:04:21.788Z,26.45
2023-05-23T14:06:52.091Z,32.05
2023-05-23T14:09:23.338Z,28.38
2023-05-23T14:11:53.404Z,28.65
2023-05-23T14:14:22.624Z,21.80
2023-05-23T14:16:55.256Z,38.20
2023-05-23T14:19:24.599Z,33.78
2023-05-23T14:21:54.192Z,27.58
2023-05-23T14:24:23.526Z,18.98
2023-05-23T14:26:53.204Z,36.90
2023-05-23T14:29:23.213Z,27.92
2023-05-23T14:31:53.432Z,23.83
2023-05-23T14:34:23.151Z,22.73
2023-05-23T14:36:52.648Z,18.70
2023-05-23T14:39:22.861Z,23.48
2023-05-23T14:41:53.842Z,34.05
2023-05-23T14:44:23.192Z,33.88
2023-05-23T14:46:52.649Z,33.83
2023-05-23T14:49:22.098Z,24.48
2023-05-23T14:51:52.028Z,19.05
2023-05-23T14:54:21.770Z,28.63
2023-05-23T14:56:53.176Z,25.58
2023-05-23T14:59:23.217Z,18.20
2023-05-23T15:01:53.161Z,20.27
2023-05-23T15:04:27.849Z,23.88
2023-05-23T15:06:57.190Z,13.70
2023-05-23T15:09:28.638Z,20.45
2023-05-23T15:11:58.294Z,17.75
2023-05-23T15:14:30.867Z,25.80
2023-05-23T15:17:08.834Z,26.20
2023-05-23T15:19:40.316Z,26.08
2023-05-23T15:22:18.362Z,32.45
2023-05-23T15:24:52.171Z,30.08
2023-05-23T15:27:23.331Z,19.15
2023-05-23T15:29:52.881Z,29.75
2023-05-23T15:32:22.332Z,23.75
2023-05-23T15:34:52.265Z,28.52
2023-05-23T15:37:21.496Z,22.92
2023-05-23T15:39:51.743Z,23.33
2023-05-23T15:42:21.150Z,30.85
2023-05-23T15:44:50.832Z,22.55
2023-05-23T15:47:21.712Z,19.70
2023-05-23T15:49:51.783Z,21.75
2023-05-23T15:52:21.182Z,18.10
2023-05-23T15:54:50.778Z,26.45
2023-05-23T15:57:20.170Z,22.70
2023-05-23T15:59:49.868Z,23.10
2023-05-23T16:02:20.497Z,28.05
2023-05-23T16:04:50.222Z,17.60
2023-05-23T16:07:19.246Z,21.95
2023-05-23T16:09:48.624Z,22.05
2023-05-23T16:12:18.709Z,23.02
2023-05-23T16:14:48.167Z,18.92
2023-05-23T16:17:17.868Z,16.30
2023-05-23T16:19:47.877Z,25.73
2023-05-23T16:22:17.800Z,36.30
2023-05-23T16:24:47.976Z,19.20
2023-05-23T16:27:17.491Z,18.77
2023-05-23T16:29:47.610Z,23.00
2023-05-23T16:32:18.366Z,23.48
2023-05-23T16:34:54.584Z,29.38
2023-05-23T16:37:25.244Z,32.00
2023-05-23T16:39:54.780Z,26.20
2023-05-23T16:42:24.014Z,29.85
2023-05-23T16:44:53.603Z,23.15
2023-05-23T16:47:23.806Z,28.40
2023-05-23T16:49:58.585Z,26.42
2023-05-23T16:52:27.934Z,22.58
2023-05-23T16:54:57.272Z,33.92
2023-05-23T16:57:27.168Z,26.33
2023-05-23T16:59:56.413Z,30.40
2023-05-23T17:02:26.513Z,20.98
2023-05-23T17:04:56.834Z,35.03
2023-05-23T17:07:26.370Z,30.10
2023-05-23T17:09:55.898Z,27.25
2023-05-23T17:12:25.115Z,33.20
2023-05-23T17:14:54.618Z,33.38
2023-05-23T17:17:24.070Z,35.58
2023-05-23T17:19:53.549Z,25.52
2023-05-23T17:22:23.595Z,33.63
2023-05-23T17:24:53.687Z,38.10
2023-05-23T17:27:23.885Z,32.63
2023-05-23T17:29:53.425Z,38.80
2023-05-23T17:32:23.687Z,39.05
2023-05-23T17:34:53.523Z,23.42
2023-05-23T17:37:22.677Z,37.08
2023-05-23T17:39:53.603Z,30.05
2023-05-23T17:42:24.896Z,33.53
2023-05-23T17:44:55.398Z,33.85
2023-05-23T17:47:25.893Z,25.13
2023-05-23T17:49:55.982Z,33.38
2023-05-23T17:52:25.841Z,44.03
2023-05-23T17:54:58.123Z,28.52
2023-05-23T17:57:29.032Z,37.47
2023-05-23T18:00:55.964Z,22.88
2023-05-23T18:03:44.497Z,34.13
2023-05-23T18:06:14.114Z,25.60
2023-05-23T18:08:43.440Z,23.90
2023-05-23T18:11:13.261Z,30.27
2023-05-23T18:13:42.807Z,30.65
2023-05-23T18:16:12.199Z,29.77
2023-05-23T18:18:42.264Z,25.67
2023-05-23T18:21:12.258Z,23.50
2023-05-23T18:23:41.985Z,26.58
2023-05-23T18:26:12.586Z,30.35
2023-05-23T18:28:42.629Z,34.42
2023-05-23T18:31:12.558Z,25.77
2023-05-23T18:33:42.787Z,24.92
2023-05-23T18:36:12.579Z,23.60
2023-05-23T18:38:42.797Z,26.73
2023-05-23T18:41:14.911Z,37.72
2023-05-23T18:43:44.719Z,40.15
2023-05-23T18:46:14.106Z,31.70
2023-05-23T18:48:46.386Z,42.67
2023-05-23T18:51:16.763Z,34.88
2023-05-23T18:53:46.379Z,32.13
2023-05-23T18:56:17.192Z,28.70
2023-05-23T18:58:47.114Z,41.28
2023-05-23T19:01:17.706Z,55.78
2023-05-23T19:03:47.468Z,56.22
2023-05-23T19:06:17.035Z,90.70
2023-05-23T19:08:47.315Z,169.98
2023-05-23T19:11:16.812Z,186.68
2023-05-23T19:13:46.475Z,183.68
2023-05-23T19:16:16.548Z,170.82
2023-05-23T19:18:46.352Z,140.45
2023-05-23T19:21:15.825Z,126.80
2023-05-23T19:23:45.030Z,109.50
2023-05-23T19:26:14.763Z,133.13
2023-05-23T19:28:44.023Z,109.00
2023-05-23T19:31:13.829Z,101.90
2023-05-23T19:33:43.750Z,113.65
2023-05-23T19:36:13.393Z,103.25
2023-05-23T19:38:42.655Z,106.18
2023-05-23T19:41:12.944Z,126.82
2023-05-23T19:43:42.132Z,91.68
2023-05-23T19:46:11.536Z,124.45
2023-05-23T19:48:40.981Z,85.38
2023-05-23T19:51:10.761Z,92.05
2023-05-23T19:53:40.135Z,74.97
2023-05-23T19:56:09.847Z,46.45
2023-05-23T19:58:39.350Z,53.88
2023-05-23T20:01:09.080Z,38.28
2023-05-23T20:03:38.620Z,24.90
2023-05-23T20:06:07.850Z,47.55
2023-05-23T20:08:37.793Z,37.28
2023-05-23T20:11:07.097Z,35.95
2023-05-23T20:13:36.677Z,31.55
2023-05-23T20:16:06.015Z,41.22
2023-05-23T20:18:35.955Z,42.05
2023-05-23T20:21:05.553Z,39.92
2023-05-23T20:23:34.968Z,43.08
2023-05-23T20:26:04.329Z,21.00
2023-05-23T20:28:34.034Z,21.70
2023-05-23T20:31:03.584Z,12.63
2023-05-23T20:33:32.809Z,11.80
2023-05-23T20:36:02.908Z,15.60
2023-05-23T20:38:34.990Z,16.17
2023-05-23T20:41:07.797Z,10.00
2023-05-23T20:43:38.238Z,10.32
2023-05-23T20:46:10.301Z,18.05
2023-05-23T20:48:39.762Z,13.63
2023-05-23T20:51:09.857Z,9.65
2023-05-23T20:53:39.452Z,8.52
2023-05-23T20:56:11.419Z,12.55
2023-05-23T20:58:41.997Z,12.30
2023-05-23T21:01:11.250Z,6.80
2023-05-23T21:03:40.600Z,5.93
2023-05-23T21:06:10.265Z,5.65
2023-05-23T21:08:39.560Z,5.90
2023-05-23T21:11:08.991Z,11.32
2023-05-23T21:13:39.911Z,8.55
2023-05-23T21:16:10.067Z,7.35
2023-05-23T21:18:39.676Z,7.38
2023-05-23T21:21:08.693Z,9.98
2023-05-23T21:23:38.073Z,9.18
2023-05-23T21:26:07.742Z,5.53
2023-05-23T21:28:37.424Z,6.95
2023-05-23T21:31:07.430Z,4.03
2023-05-23T21:33:36.737Z,8.40
2023-05-23T21:36:06.013Z,7.40
2023-05-23T21:38:38.628Z,5.57
2023-05-23T21:41:08.710Z,8.40
2023-05-23T21:43:38.599Z,10.30
2023-05-23T21:46:07.676Z,9.93
2023-05-23T21:48:37.149Z,9.40
2023-05-23T21:51:06.395Z,10.52
2023-05-23T21:53:36.260Z,8.38
2023-05-23T21:56:05.732Z,11.85
2023-05-23T21:58:35.091Z,10.95
2023-05-23T22:01:04.093Z,11.35
2023-05-23T22:03:33.640Z,11.07
2023-05-23T22:06:03.008Z,12.85
2023-05-23T22:08:34.329Z,9.20
2023-05-23T22:11:05.417Z,12.00
2023-05-23T22:13:34.901Z,5.65
2023-05-23T22:16:06.321Z,8.25
2023-05-23T22:21:11.045Z,11.32
2023-05-23T22:23:40.217Z,7.35
2023-05-23T22:26:09.706Z,8.55
2023-05-23T22:28:39.114Z,6.13
2023-05-23T22:31:10.386Z,6.20
2023-05-23T22:36:11.893Z,9.00
2023-05-23T22:38:40.987Z,8.20
2023-05-23T22:41:10.302Z,7.00
2023-05-23T22:43:40.261Z,7.90
2023-05-23T22:46:14.929Z,5.90
2023-05-23T22:48:46.163Z,8.27
2023-05-23T22:51:15.686Z,8.43
2023-05-23T22:53:45.030Z,4.45
2023-05-23T22:56:14.506Z,3.78
2023-05-23T22:58:51.069Z,5.47
2023-05-23T23:01:20.700Z,5.80
2023-05-23T23:03:49.979Z,7.63
2023-05-23T23:06:22.134Z,5.00
2023-05-23T23:08:51.754Z,9.27
2023-05-23T23:11:22.087Z,6.53
2023-05-23T23:13:51.373Z,18.95
2023-05-23T23:16:20.864Z,9.68
2023-05-23T23:18:51.666Z,13.00
2023-05-23T23:21:20.920Z,7.63
2023-05-23T23:23:50.141Z,5.70
2023-05-23T23:26:19.741Z,6.50
2023-05-23T23:28:48.792Z,3.92
2023-05-23T23:31:20.135Z,8.70
2023-05-23T23:33:49.818Z,7.07
2023-05-23T23:36:19.069Z,11.65
2023-05-23T23:38:48.496Z,4.10
2023-05-23T23:41:19.275Z,9.68
2023-05-23T23:43:48.834Z,7.95
2023-05-23T23:46:20.134Z,5.70
2023-05-23T23:48:49.635Z,10.75
2023-05-23T23:51:18.975Z,11.82
2023-05-23T23:53:49.799Z,6.65
2023-05-23T23:56:21.147Z,4.78
2023-05-23T23:58:51.111Z,8.00
